RCH258 UBBB-LICZ
Flight info
| Callsign | RCH258 |
|---|---|
| Flight time | 4h 17m |
| Altitude | 38000 |
| Route | RASAM N199 LUSAL M11 EDATA N161 INDUR UB374 ERZ UL615 DAMAT UA4 SIV UT54 HAY UR32 IMR UT54 SITRU UR20 KEA DCT BERAP UA145 LORNO DCT PIMOR |
| Aircraft | B737/M-SDFGHIM1RWXYZ/LB1 |
Departure
| Time | 2026-05-04 04:50 |
|---|---|
| Airport | Heydar Aliyev International Airport (UBBB) |
Arrival
| Time | 2026-05-04 09:07 |
|---|---|
| Airport | Sigonella Navy Air Base (LICZ) |
| Time | Latitude | Longitude | Altitude | Speed | Heading |
|---|---|---|---|---|---|
| 2026-05-04 04:05 | 40.45500 | 50.06579 | 7 ft | 0 kts | 269° |
| 2026-05-04 04:41 | 40.45499 | 50.06575 | 9 ft | 1 kts | 269° |
| 2026-05-04 04:42 | 40.45500 | 50.06575 | 9 ft | 1 kts | 271° |
| 2026-05-04 04:42 | 40.45511 | 50.06556 | 7 ft | 4 kts | 326° |
| 2026-05-04 04:42 | 40.45554 | 50.06547 | 7 ft | 8 kts | 359° |
| 2026-05-04 04:42 | 40.45627 | 50.06545 | 8 ft | 12 kts | 357° |
| 2026-05-04 04:43 | 40.45691 | 50.06491 | 7 ft | 14 kts | 270° |
| 2026-05-04 04:43 | 40.45689 | 50.06345 | 7 ft | 18 kts | 261° |
| 2026-05-04 04:43 | 40.45654 | 50.06185 | 7 ft | 20 kts | 270° |
| 2026-05-04 04:43 | 40.45761 | 50.06105 | 7 ft | 22 kts | 359° |
| 2026-05-04 04:44 | 40.45921 | 50.06103 | 7 ft | 24 kts | 359° |
| 2026-05-04 04:44 | 40.46097 | 50.06099 | 7 ft | 27 kts | 359° |
| 2026-05-04 04:44 | 40.46291 | 50.06097 | 7 ft | 29 kts | 359° |
| 2026-05-04 04:44 | 40.46492 | 50.06091 | 7 ft | 28 kts | 359° |
| 2026-05-04 04:45 | 40.46684 | 50.06088 | 7 ft | 27 kts | 2° |
| 2026-05-04 04:45 | 40.46863 | 50.06097 | 7 ft | 25 kts | 2° |
| 2026-05-04 04:45 | 40.47028 | 50.06087 | 7 ft | 23 kts | 359° |
| 2026-05-04 04:47 | 40.47910 | 50.06073 | 7 ft | 19 kts | 359° |
| 2026-05-04 04:47 | 40.48042 | 50.06072 | 7 ft | 19 kts | 1° |
| 2026-05-04 04:47 | 40.48170 | 50.06072 | 7 ft | 18 kts | 360° |
| 2026-05-04 04:47 | 40.48291 | 50.06071 | 7 ft | 17 kts | 359° |
| 2026-05-04 04:48 | 40.48410 | 50.06068 | 7 ft | 17 kts | 359° |
| 2026-05-04 04:49 | 40.48504 | 50.06177 | 7 ft | 3 kts | 92° |
| 2026-05-04 04:49 | 40.48496 | 50.06228 | 7 ft | 8 kts | 111° |
| 2026-05-04 04:49 | 40.48445 | 50.06280 | 7 ft | 12 kts | 178° |
| 2026-05-04 04:49 | 40.48327 | 50.06283 | 7 ft | 31 kts | 179° |
| 2026-05-04 04:50 | 40.47862 | 50.06290 | 9 ft | 104 kts | 179° |
| 2026-05-04 04:50 | 40.46925 | 50.06305 | 14 ft | 163 kts | 179° |
| 2026-05-04 04:50 | 40.45711 | 50.06312 | 540 ft | 175 kts | 179° |
| 2026-05-04 04:50 | 40.44511 | 50.06338 | 1543 ft | 170 kts | 179° |
| 2026-05-04 04:51 | 40.43325 | 50.06381 | 2417 ft | 176 kts | 180° |
| 2026-05-04 04:51 | 40.42014 | 50.06409 | 2920 ft | 201 kts | 181° |
| 2026-05-04 04:51 | 40.40521 | 50.06433 | 3323 ft | 224 kts | 181° |
| 2026-05-04 04:51 | 40.38895 | 50.06452 | 3828 ft | 248 kts | 181° |
| 2026-05-04 04:52 | 40.37146 | 50.06686 | 4860 ft | 254 kts | 163° |
| 2026-05-04 04:52 | 40.35617 | 50.07835 | 5897 ft | 261 kts | 146° |
| 2026-05-04 04:52 | 40.34226 | 50.09435 | 6795 ft | 270 kts | 142° |
| 2026-05-04 04:52 | 40.32837 | 50.11136 | 7547 ft | 276 kts | 142° |
| 2026-05-04 04:53 | 40.31411 | 50.12865 | 7917 ft | 280 kts | 142° |
| 2026-05-04 04:53 | 40.29987 | 50.14573 | 7992 ft | 280 kts | 142° |
| 2026-05-04 04:53 | 40.28801 | 50.16629 | 8003 ft | 291 kts | 118° |
| 2026-05-04 04:53 | 40.28358 | 50.19245 | 8019 ft | 300 kts | 97° |
| 2026-05-04 04:54 | 40.28326 | 50.21996 | 8013 ft | 302 kts | 94° |
| 2026-05-04 04:54 | 40.28319 | 50.24749 | 8014 ft | 303 kts | 94° |
| 2026-05-04 04:54 | 40.28298 | 50.27524 | 8018 ft | 304 kts | 95° |
| 2026-05-04 04:54 | 40.28290 | 50.30261 | 8023 ft | 306 kts | 90° |
| 2026-05-04 04:55 | 40.28594 | 50.33068 | 8403 ft | 314 kts | 82° |
| 2026-05-04 04:55 | 40.29007 | 50.35874 | 9444 ft | 313 kts | 82° |
| 2026-05-04 04:55 | 40.29407 | 50.38695 | 10314 ft | 317 kts | 82° |
| 2026-05-04 04:55 | 40.30065 | 50.41564 | 10652 ft | 344 kts | 61° |
| 2026-05-04 04:56 | 40.31661 | 50.43974 | 10856 ft | 369 kts | 34° |
| 2026-05-04 04:56 | 40.34060 | 50.45326 | 11124 ft | 383 kts | 6° |
| 2026-05-04 04:56 | 40.36736 | 50.45455 | 11785 ft | 386 kts | 355° |
| 2026-05-04 04:56 | 40.39438 | 50.45309 | 12555 ft | 391 kts | 354° |
| 2026-05-04 04:57 | 40.42171 | 50.45158 | 13305 ft | 396 kts | 354° |
| 2026-05-04 04:57 | 40.44952 | 50.45062 | 14081 ft | 400 kts | 355° |
| 2026-05-04 04:57 | 40.47717 | 50.45023 | 14889 ft | 402 kts | 356° |
| 2026-05-04 04:57 | 40.50530 | 50.45018 | 15709 ft | 404 kts | 356° |
| 2026-05-04 04:58 | 40.53376 | 50.45021 | 16470 ft | 409 kts | 356° |
| 2026-05-04 04:58 | 40.56180 | 50.44768 | 17161 ft | 408 kts | 342° |
| 2026-05-04 04:58 | 40.56542 | 50.44649 | 17251 ft | 407 kts | 340° |
| 2026-05-04 04:58 | 40.58496 | 50.43544 | 17817 ft | 403 kts | 324° |
| 2026-05-04 04:59 | 40.60623 | 50.41206 | 18508 ft | 398 kts | 306° |
| 2026-05-04 04:59 | 40.62090 | 50.38156 | 19159 ft | 393 kts | 290° |
| 2026-05-04 04:59 | 40.62874 | 50.34730 | 19832 ft | 390 kts | 275° |
| 2026-05-04 04:59 | 40.62973 | 50.31165 | 20524 ft | 390 kts | 267° |
| 2026-05-04 05:00 | 40.62909 | 50.27629 | 21166 ft | 392 kts | 266° |
| 2026-05-04 05:00 | 40.62809 | 50.24008 | 21784 ft | 396 kts | 266° |
| 2026-05-04 05:00 | 40.62617 | 50.16694 | 23006 ft | 401 kts | 266° |
| 2026-05-04 05:01 | 40.62537 | 50.13049 | 23594 ft | 404 kts | 266° |
| 2026-05-04 05:01 | 40.62464 | 50.09346 | 24153 ft | 405 kts | 266° |
| 2026-05-04 05:01 | 40.62395 | 50.05644 | 24856 ft | 401 kts | 266° |
| 2026-05-04 05:01 | 40.62329 | 50.01992 | 25630 ft | 397 kts | 266° |
| 2026-05-04 05:02 | 40.62261 | 49.98351 | 26320 ft | 396 kts | 266° |
| 2026-05-04 05:02 | 40.62193 | 49.94740 | 26962 ft | 395 kts | 266° |
| 2026-05-04 05:02 | 40.62122 | 49.91121 | 27660 ft | 393 kts | 266° |
| 2026-05-04 05:02 | 40.62052 | 49.87543 | 28398 ft | 390 kts | 265° |
| 2026-05-04 05:03 | 40.61981 | 49.83976 | 29121 ft | 388 kts | 265° |
| 2026-05-04 05:03 | 40.61910 | 49.80479 | 29779 ft | 386 kts | 265° |
| 2026-05-04 05:04 | 40.61758 | 49.69858 | 31215 ft | 389 kts | 266° |
| 2026-05-04 05:04 | 40.61738 | 49.66301 | 31722 ft | 387 kts | 267° |
| 2026-05-04 05:04 | 40.61718 | 49.62762 | 32267 ft | 385 kts | 267° |
| 2026-05-04 05:06 | 40.61505 | 49.38204 | 35177 ft | 380 kts | 266° |
| 2026-05-04 05:06 | 40.61470 | 49.34729 | 35568 ft | 378 kts | 266° |
| 2026-05-04 05:06 | 40.61433 | 49.31272 | 35911 ft | 377 kts | 267° |
| 2026-05-04 05:07 | 40.61396 | 49.27821 | 36225 ft | 376 kts | 267° |
| 2026-05-04 05:07 | 40.61358 | 49.24383 | 36565 ft | 374 kts | 266° |
| 2026-05-04 05:07 | 40.61319 | 49.21007 | 36901 ft | 373 kts | 266° |
| 2026-05-04 05:09 | 40.60798 | 48.94582 | 38000 ft | 393 kts | 266° |
| 2026-05-04 05:09 | 40.60720 | 48.90952 | 37994 ft | 398 kts | 266° |
| 2026-05-04 05:10 | 40.60561 | 48.83608 | 38005 ft | 408 kts | 266° |
| 2026-05-04 05:10 | 40.60394 | 48.76111 | 37994 ft | 412 kts | 266° |
| 2026-05-04 05:11 | 40.60221 | 48.68573 | 37997 ft | 413 kts | 266° |
| 2026-05-04 05:11 | 40.60043 | 48.61001 | 38009 ft | 412 kts | 266° |
| 2026-05-04 05:12 | 40.59860 | 48.53508 | 38007 ft | 412 kts | 266° |
| 2026-05-04 05:12 | 40.59672 | 48.45993 | 38030 ft | 410 kts | 265° |
| 2026-05-04 05:13 | 40.59479 | 48.38455 | 38019 ft | 410 kts | 265° |
| 2026-05-04 05:13 | 40.59284 | 48.31020 | 38021 ft | 409 kts | 265° |
| 2026-05-04 05:14 | 40.59083 | 48.23552 | 38033 ft | 408 kts | 265° |
| 2026-05-04 05:14 | 40.58878 | 48.16086 | 38026 ft | 406 kts | 265° |
| 2026-05-04 05:15 | 40.58679 | 48.08707 | 38035 ft | 406 kts | 265° |
| 2026-05-04 05:15 | 40.58477 | 48.01300 | 38037 ft | 405 kts | 265° |
| 2026-05-04 05:16 | 40.58309 | 47.93889 | 38049 ft | 406 kts | 268° |
| 2026-05-04 05:16 | 40.58542 | 47.86434 | 38040 ft | 412 kts | 269° |
| 2026-05-04 05:17 | 40.58827 | 47.78855 | 38050 ft | 415 kts | 270° |
| 2026-05-04 05:17 | 40.59092 | 47.71341 | 38008 ft | 406 kts | 269° |
| 2026-05-04 05:18 | 40.59336 | 47.63938 | 38023 ft | 402 kts | 269° |
| 2026-05-04 05:18 | 40.59565 | 47.56635 | 38018 ft | 401 kts | 268° |
| 2026-05-04 05:19 | 40.59791 | 47.49299 | 38000 ft | 400 kts | 268° |
| 2026-05-04 05:19 | 40.60013 | 47.41963 | 38000 ft | 401 kts | 268° |
| 2026-05-04 05:20 | 40.60230 | 47.34638 | 37975 ft | 404 kts | 268° |
| 2026-05-04 05:20 | 40.60448 | 47.27208 | 37967 ft | 405 kts | 268° |
| 2026-05-04 05:21 | 40.60647 | 47.19801 | 37966 ft | 404 kts | 266° |
| 2026-05-04 05:21 | 40.59998 | 47.12581 | 37980 ft | 399 kts | 257° |
| 2026-05-04 05:22 | 40.58997 | 47.05377 | 37976 ft | 400 kts | 257° |
| 2026-05-04 05:22 | 40.58006 | 46.98173 | 37969 ft | 400 kts | 257° |
| 2026-05-04 05:23 | 40.57027 | 46.90989 | 37970 ft | 401 kts | 257° |
| 2026-05-04 05:23 | 40.56040 | 46.83737 | 37972 ft | 402 kts | 257° |
| 2026-05-04 05:24 | 40.55054 | 46.76521 | 37811 ft | 403 kts | 259° |
| 2026-05-04 05:24 | 40.54557 | 46.72895 | 37912 ft | 401 kts | 259° |
| 2026-05-04 05:24 | 40.54066 | 46.69323 | 37954 ft | 400 kts | 259° |
| 2026-05-04 05:25 | 40.53064 | 46.62046 | 37599 ft | 411 kts | 259° |
| 2026-05-04 05:25 | 40.52547 | 46.58315 | 37379 ft | 417 kts | 259° |
| 2026-05-04 05:25 | 40.52026 | 46.54560 | 37149 ft | 424 kts | 259° |
| 2026-05-04 05:26 | 40.51492 | 46.50720 | 36917 ft | 430 kts | 259° |
| 2026-05-04 05:26 | 40.50948 | 46.46820 | 36681 ft | 436 kts | 259° |
| 2026-05-04 05:26 | 40.50397 | 46.42877 | 36445 ft | 441 kts | 259° |
| 2026-05-04 05:26 | 40.49837 | 46.38881 | 36205 ft | 446 kts | 259° |
| 2026-05-04 05:27 | 40.49271 | 46.34857 | 36046 ft | 448 kts | 259° |
| 2026-05-04 05:28 | 40.46046 | 46.12105 | 35994 ft | 443 kts | 259° |
| 2026-05-04 05:29 | 40.44912 | 46.04190 | 35994 ft | 442 kts | 259° |
| 2026-05-04 05:29 | 40.43772 | 45.96265 | 35996 ft | 440 kts | 259° |
| 2026-05-04 05:31 | 40.39201 | 45.64891 | 36001 ft | 437 kts | 259° |
| 2026-05-04 05:32 | 40.38106 | 45.57050 | 36001 ft | 436 kts | 260° |
| 2026-05-04 05:33 | 40.36532 | 45.45275 | 35999 ft | 436 kts | 259° |
| 2026-05-04 05:33 | 40.35477 | 45.37477 | 36001 ft | 435 kts | 259° |
| 2026-05-04 05:34 | 40.34406 | 45.29653 | 36000 ft | 436 kts | 259° |
| 2026-05-04 05:34 | 40.33323 | 45.21796 | 36013 ft | 442 kts | 259° |
| 2026-05-04 05:35 | 40.32215 | 45.13796 | 36011 ft | 449 kts | 259° |
| 2026-05-04 05:35 | 40.31091 | 45.05720 | 36011 ft | 455 kts | 259° |
| 2026-05-04 05:36 | 40.29940 | 44.97492 | 36007 ft | 461 kts | 259° |
| 2026-05-04 05:36 | 40.28772 | 44.89189 | 36009 ft | 465 kts | 259° |
| 2026-05-04 05:37 | 40.27593 | 44.80855 | 36008 ft | 470 kts | 259° |
| 2026-05-04 05:37 | 40.26390 | 44.72395 | 36005 ft | 473 kts | 259° |
| 2026-05-04 05:38 | 40.24568 | 44.59660 | 36003 ft | 478 kts | 259° |
| 2026-05-04 05:38 | 40.23364 | 44.51068 | 36002 ft | 480 kts | 259° |
| 2026-05-04 05:39 | 40.21621 | 44.38148 | 36002 ft | 483 kts | 259° |
| 2026-05-04 05:40 | 40.19838 | 44.25109 | 36002 ft | 485 kts | 259° |
| 2026-05-04 05:40 | 40.18641 | 44.16454 | 36002 ft | 486 kts | 259° |
| 2026-05-04 05:41 | 40.17427 | 44.07729 | 36002 ft | 487 kts | 259° |
| 2026-05-04 05:41 | 40.16204 | 43.98985 | 36001 ft | 488 kts | 259° |
| 2026-05-04 05:42 | 40.14981 | 43.90293 | 36002 ft | 489 kts | 259° |
| 2026-05-04 05:42 | 40.13741 | 43.81530 | 36002 ft | 490 kts | 259° |
| 2026-05-04 05:43 | 40.12495 | 43.72762 | 36001 ft | 490 kts | 259° |
| 2026-05-04 05:43 | 40.11876 | 43.68403 | 36135 ft | 477 kts | 256° |
| 2026-05-04 05:45 | 40.10250 | 43.41396 | 35932 ft | 414 kts | 261° |
| 2026-05-04 05:47 | 40.08535 | 43.11224 | 35953 ft | 419 kts | 261° |
| 2026-05-04 05:47 | 40.08092 | 43.03622 | 35948 ft | 419 kts | 261° |
| 2026-05-04 05:48 | 40.07647 | 42.96062 | 35948 ft | 419 kts | 261° |
| 2026-05-04 05:48 | 40.07194 | 42.88503 | 35939 ft | 419 kts | 261° |
| 2026-05-04 05:49 | 40.06734 | 42.80867 | 35923 ft | 419 kts | 261° |
| 2026-05-04 05:49 | 40.06275 | 42.73319 | 35924 ft | 418 kts | 261° |
| 2026-05-04 05:51 | 40.04388 | 42.43111 | 35930 ft | 416 kts | 261° |
| 2026-05-04 05:52 | 40.03891 | 42.35622 | 35920 ft | 416 kts | 261° |
| 2026-05-04 05:52 | 40.03378 | 42.28094 | 35916 ft | 416 kts | 260° |
| 2026-05-04 05:54 | 40.01292 | 41.97987 | 35907 ft | 418 kts | 260° |
| 2026-05-04 05:55 | 40.00756 | 41.90406 | 35931 ft | 419 kts | 260° |
| 2026-05-04 05:55 | 40.00216 | 41.82853 | 35921 ft | 420 kts | 260° |
| 2026-05-04 05:56 | 39.99669 | 41.75252 | 35901 ft | 420 kts | 260° |
| 2026-05-04 05:56 | 39.99127 | 41.67674 | 35899 ft | 421 kts | 260° |
| 2026-05-04 05:57 | 39.98586 | 41.60076 | 35881 ft | 421 kts | 260° |
| 2026-05-04 05:57 | 39.98132 | 41.53752 | 35889 ft | 420 kts | 260° |
| 2026-05-04 05:58 | 39.97582 | 41.46154 | 35909 ft | 420 kts | 259° |
| 2026-05-04 05:58 | 39.97359 | 41.43099 | 35895 ft | 419 kts | 259° |
| 2026-05-04 05:59 | 39.96803 | 41.35529 | 35898 ft | 419 kts | 259° |
| 2026-05-04 05:59 | 39.96247 | 41.28010 | 35886 ft | 419 kts | 259° |
| 2026-05-04 06:00 | 39.95693 | 41.20453 | 35891 ft | 420 kts | 261° |
| 2026-05-04 06:00 | 39.95603 | 41.12804 | 35890 ft | 423 kts | 265° |
| 2026-05-04 06:01 | 39.95661 | 41.05124 | 35900 ft | 423 kts | 265° |
| 2026-05-04 06:03 | 39.95630 | 40.74397 | 35872 ft | 426 kts | 265° |
| 2026-05-04 06:05 | 39.95472 | 40.39413 | 35842 ft | 431 kts | 264° |
| 2026-05-04 06:06 | 39.95425 | 40.31631 | 35843 ft | 432 kts | 264° |
| 2026-05-04 06:06 | 39.95372 | 40.23797 | 35829 ft | 432 kts | 264° |
| 2026-05-04 06:07 | 39.95313 | 40.15943 | 35819 ft | 433 kts | 264° |
| 2026-05-04 06:07 | 39.95250 | 40.08142 | 35845 ft | 433 kts | 264° |
| 2026-05-04 06:08 | 39.95181 | 40.00282 | 35812 ft | 433 kts | 264° |
| 2026-05-04 06:08 | 39.95108 | 39.92428 | 35807 ft | 434 kts | 264° |
| 2026-05-04 06:09 | 39.95040 | 39.84574 | 35791 ft | 433 kts | 264° |
| 2026-05-04 06:11 | 39.94745 | 39.53176 | 35820 ft | 435 kts | 264° |
| 2026-05-04 06:13 | 39.94283 | 39.21478 | 35761 ft | 438 kts | 263° |
| 2026-05-04 06:14 | 39.93796 | 38.93651 | 35791 ft | 441 kts | 263° |
| 2026-05-04 06:15 | 39.93571 | 38.85650 | 35788 ft | 440 kts | 261° |
| 2026-05-04 06:15 | 39.93048 | 38.77698 | 35783 ft | 439 kts | 259° |
| 2026-05-04 06:16 | 39.92475 | 38.69805 | 35777 ft | 439 kts | 259° |
| 2026-05-04 06:16 | 39.91922 | 38.61877 | 35824 ft | 439 kts | 259° |
| 2026-05-04 06:17 | 39.91385 | 38.53996 | 35801 ft | 438 kts | 259° |
| 2026-05-04 06:17 | 39.90844 | 38.46086 | 35807 ft | 438 kts | 259° |
| 2026-05-04 06:18 | 39.90298 | 38.38172 | 35801 ft | 436 kts | 259° |
| 2026-05-04 06:20 | 39.88068 | 38.06705 | 35839 ft | 437 kts | 260° |
| 2026-05-04 06:21 | 39.86627 | 37.86999 | 35844 ft | 439 kts | 259° |
| 2026-05-04 06:22 | 39.86038 | 37.79074 | 35846 ft | 440 kts | 259° |
| 2026-05-04 06:22 | 39.85742 | 37.75114 | 35398 ft | 440 kts | 259° |
| 2026-05-04 06:25 | 39.81719 | 37.23411 | 35804 ft | 440 kts | 259° |
| 2026-05-04 06:26 | 39.81073 | 37.15493 | 35793 ft | 439 kts | 259° |
| 2026-05-04 06:26 | 39.80428 | 37.07643 | 35803 ft | 438 kts | 259° |
| 2026-05-04 06:27 | 39.78832 | 36.87952 | 35811 ft | 440 kts | 263° |
| 2026-05-04 06:28 | 39.78738 | 36.79950 | 35812 ft | 444 kts | 266° |
| 2026-05-04 06:28 | 39.78749 | 36.77076 | 35810 ft | 444 kts | 266° |
| 2026-05-04 06:29 | 39.78764 | 36.69065 | 35798 ft | 446 kts | 266° |
| 2026-05-04 06:29 | 39.78727 | 36.60971 | 35789 ft | 448 kts | 265° |
| 2026-05-04 06:30 | 39.78664 | 36.52829 | 35761 ft | 450 kts | 265° |
| 2026-05-04 06:30 | 39.78594 | 36.44674 | 35759 ft | 452 kts | 265° |
| 2026-05-04 06:31 | 39.78519 | 36.36524 | 35768 ft | 453 kts | 266° |
| 2026-05-04 06:31 | 39.78441 | 36.28303 | 35757 ft | 455 kts | 266° |
| 2026-05-04 06:33 | 39.76181 | 35.95765 | 35749 ft | 453 kts | 261° |
| 2026-05-04 06:34 | 39.75536 | 35.87584 | 35757 ft | 453 kts | 261° |
| 2026-05-04 06:34 | 39.74892 | 35.79462 | 35754 ft | 454 kts | 261° |
| 2026-05-04 06:36 | 39.72228 | 35.46854 | 35772 ft | 455 kts | 262° |
| 2026-05-04 06:37 | 39.71533 | 35.38663 | 35762 ft | 456 kts | 262° |
| 2026-05-04 06:37 | 39.70833 | 35.30444 | 35760 ft | 457 kts | 262° |
| 2026-05-04 06:38 | 39.70128 | 35.22238 | 35760 ft | 457 kts | 262° |
| 2026-05-04 06:40 | 39.67254 | 34.89439 | 35770 ft | 459 kts | 262° |
| 2026-05-04 06:40 | 39.66516 | 34.81194 | 35769 ft | 459 kts | 262° |
| 2026-05-04 06:41 | 39.65773 | 34.72946 | 35765 ft | 459 kts | 262° |
| 2026-05-04 06:41 | 39.65030 | 34.64771 | 35766 ft | 459 kts | 262° |
| 2026-05-04 06:42 | 39.64274 | 34.56520 | 35771 ft | 459 kts | 262° |
| 2026-05-04 06:44 | 39.61345 | 34.25079 | 35763 ft | 458 kts | 262° |
| 2026-05-04 06:44 | 39.60567 | 34.16852 | 35764 ft | 459 kts | 262° |
| 2026-05-04 06:45 | 39.59788 | 34.08675 | 35769 ft | 459 kts | 262° |
| 2026-05-04 06:45 | 39.58999 | 34.00450 | 35764 ft | 459 kts | 262° |
| 2026-05-04 06:46 | 39.58203 | 33.92225 | 35766 ft | 459 kts | 262° |
| 2026-05-04 06:46 | 39.57406 | 33.84045 | 35768 ft | 459 kts | 262° |
| 2026-05-04 06:48 | 39.54153 | 33.51258 | 35769 ft | 464 kts | 262° |
| 2026-05-04 06:50 | 39.50781 | 33.18146 | 35747 ft | 463 kts | 262° |
| 2026-05-04 06:51 | 39.49923 | 33.09853 | 35737 ft | 463 kts | 262° |
| 2026-05-04 06:51 | 39.49062 | 33.01585 | 35752 ft | 463 kts | 262° |
| 2026-05-04 06:52 | 39.48202 | 32.93364 | 35749 ft | 463 kts | 262° |
| 2026-05-04 06:52 | 39.47331 | 32.85099 | 35741 ft | 463 kts | 262° |
| 2026-05-04 06:53 | 39.46459 | 32.76833 | 35765 ft | 463 kts | 262° |
| 2026-05-04 06:53 | 39.45589 | 32.68622 | 35759 ft | 463 kts | 262° |
| 2026-05-04 06:54 | 39.44709 | 32.60374 | 35756 ft | 463 kts | 262° |
| 2026-05-04 06:54 | 39.43790 | 32.52117 | 35764 ft | 463 kts | 259° |
| 2026-05-04 06:55 | 39.41766 | 32.44263 | 35782 ft | 464 kts | 247° |
| 2026-05-04 06:55 | 39.39313 | 32.36532 | 35789 ft | 465 kts | 249° |
| 2026-05-04 06:57 | 39.29588 | 32.05609 | 35797 ft | 464 kts | 249° |
| 2026-05-04 06:58 | 39.27142 | 31.97890 | 35795 ft | 464 kts | 249° |
| 2026-05-04 06:58 | 39.26172 | 31.94833 | 35803 ft | 464 kts | 249° |
| 2026-05-04 06:59 | 39.23735 | 31.87169 | 35808 ft | 463 kts | 248° |
| 2026-05-04 06:59 | 39.21221 | 31.79518 | 35802 ft | 463 kts | 244° |
| 2026-05-04 07:01 | 39.09192 | 31.50294 | 35845 ft | 461 kts | 244° |
| 2026-05-04 07:02 | 39.06189 | 31.42992 | 35850 ft | 460 kts | 244° |
| 2026-05-04 07:02 | 39.03209 | 31.35756 | 35855 ft | 459 kts | 243° |
| 2026-05-04 07:03 | 39.00199 | 31.28476 | 36228 ft | 459 kts | 244° |
| 2026-05-04 07:03 | 38.98699 | 31.24861 | 36670 ft | 456 kts | 243° |
| 2026-05-04 07:03 | 38.97208 | 31.21266 | 37012 ft | 454 kts | 245° |
| 2026-05-04 07:04 | 38.95725 | 31.17689 | 37330 ft | 453 kts | 244° |
| 2026-05-04 07:04 | 38.94243 | 31.14124 | 37588 ft | 454 kts | 244° |
| 2026-05-04 07:04 | 38.92754 | 31.10539 | 37882 ft | 453 kts | 244° |
| 2026-05-04 07:04 | 38.91288 | 31.07022 | 38269 ft | 450 kts | 243° |
| 2026-05-04 07:05 | 38.89806 | 31.03470 | 38544 ft | 450 kts | 242° |
| 2026-05-04 07:05 | 38.88326 | 30.99918 | 38714 ft | 450 kts | 242° |
| 2026-05-04 07:05 | 38.86848 | 30.96383 | 38994 ft | 447 kts | 243° |
| 2026-05-04 07:05 | 38.85379 | 30.92873 | 39220 ft | 446 kts | 243° |
| 2026-05-04 07:06 | 38.82436 | 30.85845 | 39519 ft | 448 kts | 243° |
| 2026-05-04 07:06 | 38.80960 | 30.82333 | 39834 ft | 444 kts | 244° |
| 2026-05-04 07:07 | 38.78057 | 30.75424 | 39876 ft | 442 kts | 242° |
| 2026-05-04 07:08 | 38.72226 | 30.49355 | 39896 ft | 440 kts | 272° |
| 2026-05-04 07:09 | 38.72339 | 30.45439 | 39888 ft | 439 kts | 273° |
| 2026-05-04 07:09 | 38.72544 | 30.37637 | 39889 ft | 437 kts | 273° |
| 2026-05-04 07:10 | 38.72702 | 30.29844 | 39901 ft | 436 kts | 272° |
| 2026-05-04 07:12 | 38.73082 | 29.98334 | 39881 ft | 448 kts | 264° |
| 2026-05-04 07:12 | 38.72122 | 29.90479 | 39913 ft | 444 kts | 262° |
| 2026-05-04 07:13 | 38.71101 | 29.82737 | 39898 ft | 441 kts | 263° |
| 2026-05-04 07:13 | 38.70120 | 29.75001 | 39924 ft | 438 kts | 262° |
| 2026-05-04 07:14 | 38.67680 | 29.55525 | 39945 ft | 447 kts | 262° |
| 2026-05-04 07:15 | 38.66685 | 29.47664 | 39900 ft | 447 kts | 263° |
| 2026-05-04 07:15 | 38.65837 | 29.39818 | 39898 ft | 446 kts | 264° |
| 2026-05-04 07:16 | 38.65092 | 29.31928 | 39908 ft | 447 kts | 265° |
| 2026-05-04 07:16 | 38.64320 | 29.24077 | 39908 ft | 446 kts | 264° |
| 2026-05-04 07:17 | 38.63524 | 29.16188 | 39914 ft | 446 kts | 264° |
| 2026-05-04 07:17 | 38.62728 | 29.08325 | 39915 ft | 445 kts | 264° |
| 2026-05-04 07:18 | 38.61933 | 29.00455 | 39933 ft | 445 kts | 264° |
| 2026-05-04 07:18 | 38.61141 | 28.92649 | 39931 ft | 445 kts | 264° |
| 2026-05-04 07:19 | 38.60339 | 28.84797 | 39937 ft | 445 kts | 264° |
| 2026-05-04 07:19 | 38.59532 | 28.76959 | 39946 ft | 444 kts | 264° |
| 2026-05-04 07:20 | 38.58719 | 28.69113 | 39948 ft | 444 kts | 264° |
| 2026-05-04 07:20 | 38.57905 | 28.61322 | 39954 ft | 445 kts | 263° |
| 2026-05-04 07:22 | 38.51305 | 28.30795 | 39979 ft | 445 kts | 256° |
| 2026-05-04 07:23 | 38.49743 | 28.23138 | 39982 ft | 444 kts | 261° |
| 2026-05-04 07:23 | 38.48640 | 28.15415 | 39999 ft | 443 kts | 262° |
| 2026-05-04 07:24 | 38.47585 | 28.07647 | 39990 ft | 444 kts | 262° |
| 2026-05-04 07:24 | 38.47044 | 28.03779 | 40114 ft | 438 kts | 261° |
| 2026-05-04 07:24 | 38.46508 | 28.00008 | 40053 ft | 437 kts | 262° |
| 2026-05-04 07:26 | 38.41992 | 27.68920 | 40001 ft | 450 kts | 262° |
| 2026-05-04 07:27 | 38.40843 | 27.61116 | 39998 ft | 450 kts | 262° |
| 2026-05-04 07:27 | 38.39685 | 27.53285 | 40007 ft | 449 kts | 262° |
| 2026-05-04 07:28 | 38.38526 | 27.45485 | 39996 ft | 444 kts | 262° |
| 2026-05-04 07:28 | 38.38091 | 27.42580 | 39993 ft | 440 kts | 261° |
| 2026-05-04 07:29 | 38.36937 | 27.34954 | 40010 ft | 436 kts | 261° |
| 2026-05-04 07:29 | 38.35788 | 27.27390 | 40019 ft | 436 kts | 261° |
| 2026-05-04 07:30 | 38.34630 | 27.19789 | 40022 ft | 437 kts | 261° |
| 2026-05-04 07:30 | 38.33465 | 27.12173 | 40041 ft | 437 kts | 261° |
| 2026-05-04 07:31 | 38.32303 | 27.04607 | 40055 ft | 438 kts | 261° |
| 2026-05-04 07:33 | 38.24150 | 26.75061 | 40052 ft | 444 kts | 252° |
| 2026-05-04 07:33 | 38.21967 | 26.67685 | 40052 ft | 444 kts | 252° |
| 2026-05-04 07:34 | 38.19803 | 26.60383 | 40057 ft | 443 kts | 252° |
| 2026-05-04 07:34 | 38.17625 | 26.53059 | 40052 ft | 442 kts | 252° |
| 2026-05-04 07:35 | 38.15811 | 26.46977 | 40060 ft | 442 kts | 252° |
| 2026-05-04 07:35 | 38.13628 | 26.39672 | 40071 ft | 441 kts | 252° |
| 2026-05-04 07:36 | 38.11448 | 26.32395 | 40078 ft | 440 kts | 252° |
| 2026-05-04 07:38 | 38.03586 | 26.03174 | 40098 ft | 436 kts | 255° |
| 2026-05-04 07:38 | 38.01648 | 25.95926 | 40104 ft | 436 kts | 255° |
| 2026-05-04 07:39 | 37.99690 | 25.88634 | 40103 ft | 436 kts | 255° |
| 2026-05-04 07:39 | 37.97741 | 25.81396 | 40104 ft | 436 kts | 255° |
| 2026-05-04 07:40 | 37.95771 | 25.74098 | 40108 ft | 436 kts | 255° |
| 2026-05-04 07:40 | 37.93812 | 25.66863 | 40113 ft | 436 kts | 255° |
| 2026-05-04 07:41 | 37.91831 | 25.59566 | 40109 ft | 436 kts | 255° |
| 2026-05-04 07:41 | 37.89863 | 25.52339 | 40117 ft | 437 kts | 255° |
| 2026-05-04 07:42 | 37.87875 | 25.45054 | 40123 ft | 437 kts | 255° |
| 2026-05-04 07:42 | 37.85882 | 25.37775 | 40128 ft | 437 kts | 255° |
| 2026-05-04 07:43 | 37.83895 | 25.30537 | 40121 ft | 437 kts | 255° |
| 2026-05-04 07:43 | 37.81884 | 25.23233 | 40134 ft | 438 kts | 255° |
| 2026-05-04 07:44 | 37.79888 | 25.16002 | 40133 ft | 438 kts | 255° |
| 2026-05-04 07:44 | 37.77874 | 25.08726 | 40139 ft | 438 kts | 255° |
| 2026-05-04 07:45 | 37.75852 | 25.01442 | 39372 ft | 438 kts | 254° |
| 2026-05-04 07:45 | 37.74849 | 24.97824 | 39556 ft | 432 kts | 250° |
| 2026-05-04 07:45 | 37.73864 | 24.94296 | 40380 ft | 428 kts | 255° |
| 2026-05-04 07:46 | 37.72864 | 24.90713 | 40260 ft | 433 kts | 255° |
| 2026-05-04 07:46 | 37.71858 | 24.87105 | 40226 ft | 438 kts | 255° |
| 2026-05-04 07:46 | 37.69827 | 24.79843 | 40147 ft | 442 kts | 255° |
| 2026-05-04 07:47 | 37.67771 | 24.72522 | 40147 ft | 442 kts | 255° |
| 2026-05-04 07:49 | 37.59555 | 24.43447 | 40154 ft | 437 kts | 255° |
| 2026-05-04 07:49 | 37.57506 | 24.36237 | 40146 ft | 435 kts | 255° |
| 2026-05-04 07:50 | 37.55720 | 24.29025 | 40160 ft | 428 kts | 264° |
| 2026-05-04 07:50 | 37.55248 | 24.21603 | 40161 ft | 423 kts | 271° |
| 2026-05-04 07:51 | 37.54968 | 24.14254 | 40166 ft | 422 kts | 271° |
| 2026-05-04 07:51 | 37.54665 | 24.06872 | 40154 ft | 421 kts | 271° |
| 2026-05-04 07:52 | 37.54337 | 23.99500 | 40175 ft | 421 kts | 271° |
| 2026-05-04 07:52 | 37.53998 | 23.92137 | 40164 ft | 421 kts | 271° |
| 2026-05-04 07:54 | 37.52591 | 23.62765 | 40163 ft | 420 kts | 271° |
| 2026-05-04 07:55 | 37.52229 | 23.55417 | 40169 ft | 420 kts | 271° |
| 2026-05-04 07:55 | 37.51863 | 23.48106 | 40171 ft | 420 kts | 271° |
| 2026-05-04 07:56 | 37.51492 | 23.40769 | 40151 ft | 420 kts | 271° |
| 2026-05-04 07:56 | 37.51115 | 23.33425 | 40162 ft | 419 kts | 271° |
| 2026-05-04 07:57 | 37.50734 | 23.26086 | 40171 ft | 420 kts | 271° |
| 2026-05-04 07:57 | 37.50352 | 23.18790 | 40173 ft | 420 kts | 271° |
| 2026-05-04 07:58 | 37.49962 | 23.11458 | 40168 ft | 420 kts | 271° |
| 2026-05-04 07:58 | 37.49803 | 23.08488 | 40154 ft | 420 kts | 271° |
| 2026-05-04 07:59 | 37.49405 | 23.01139 | 40154 ft | 419 kts | 271° |
| 2026-05-04 07:59 | 37.49006 | 22.93836 | 40155 ft | 416 kts | 271° |
| 2026-05-04 08:00 | 37.48606 | 22.86613 | 40176 ft | 414 kts | 271° |
| 2026-05-04 08:02 | 37.46980 | 22.57936 | 40159 ft | 409 kts | 271° |
| 2026-05-04 08:02 | 37.46563 | 22.50783 | 40178 ft | 408 kts | 271° |
| 2026-05-04 08:03 | 37.46146 | 22.43700 | 40155 ft | 408 kts | 271° |
| 2026-05-04 08:03 | 37.45720 | 22.36553 | 40168 ft | 408 kts | 271° |
| 2026-05-04 08:04 | 37.45296 | 22.29482 | 40174 ft | 407 kts | 271° |
| 2026-05-04 08:04 | 37.44864 | 22.22375 | 40175 ft | 407 kts | 271° |
| 2026-05-04 08:05 | 37.44429 | 22.15264 | 40195 ft | 407 kts | 271° |
| 2026-05-04 08:05 | 37.43990 | 22.08169 | 40181 ft | 408 kts | 271° |
| 2026-05-04 08:06 | 37.43542 | 22.01029 | 40185 ft | 409 kts | 271° |
| 2026-05-04 08:06 | 37.43092 | 21.93881 | 40196 ft | 409 kts | 271° |
| 2026-05-04 08:08 | 37.41250 | 21.65366 | 40191 ft | 410 kts | 271° |
| 2026-05-04 08:11 | 37.41278 | 21.33437 | 40195 ft | 404 kts | 276° |
| 2026-05-04 08:11 | 37.41324 | 21.22863 | 40196 ft | 404 kts | 276° |
| 2026-05-04 08:12 | 37.41349 | 21.15791 | 40196 ft | 403 kts | 276° |
| 2026-05-04 08:12 | 37.41370 | 21.08785 | 40184 ft | 402 kts | 276° |
| 2026-05-04 08:13 | 37.41389 | 21.01743 | 40188 ft | 402 kts | 276° |
| 2026-05-04 08:13 | 37.41402 | 20.94718 | 40193 ft | 402 kts | 276° |
| 2026-05-04 08:14 | 37.41406 | 20.87715 | 40193 ft | 401 kts | 276° |
| 2026-05-04 08:16 | 37.41382 | 20.59613 | 40192 ft | 402 kts | 275° |
| 2026-05-04 08:16 | 37.41367 | 20.52553 | 40193 ft | 403 kts | 275° |
| 2026-05-04 08:17 | 37.41347 | 20.45488 | 40174 ft | 403 kts | 275° |
| 2026-05-04 08:17 | 37.41322 | 20.38478 | 40185 ft | 403 kts | 275° |
| 2026-05-04 08:19 | 37.41183 | 20.10265 | 40179 ft | 403 kts | 275° |
| 2026-05-04 08:20 | 37.41138 | 20.03208 | 40189 ft | 403 kts | 275° |
| 2026-05-04 08:20 | 37.41089 | 19.96152 | 40191 ft | 403 kts | 275° |
| 2026-05-04 08:21 | 37.41036 | 19.89142 | 40190 ft | 403 kts | 274° |
| 2026-05-04 08:21 | 37.40978 | 19.82101 | 40188 ft | 402 kts | 274° |
| 2026-05-04 08:22 | 37.40916 | 19.75071 | 40186 ft | 401 kts | 274° |
| 2026-05-04 08:24 | 37.40642 | 19.48199 | 40192 ft | 401 kts | 274° |
| 2026-05-04 08:24 | 37.40561 | 19.41230 | 40186 ft | 400 kts | 274° |
| 2026-05-04 08:25 | 37.40476 | 19.34222 | 40192 ft | 400 kts | 274° |
| 2026-05-04 08:25 | 37.40386 | 19.27225 | 40193 ft | 400 kts | 274° |
| 2026-05-04 08:27 | 37.40019 | 18.99210 | 40192 ft | 399 kts | 276° |
| 2026-05-04 08:28 | 37.40427 | 18.92298 | 40196 ft | 398 kts | 279° |
| 2026-05-04 08:28 | 37.40624 | 18.89672 | 40191 ft | 398 kts | 279° |
| 2026-05-04 08:29 | 37.41139 | 18.82775 | 40195 ft | 398 kts | 279° |
| 2026-05-04 08:31 | 37.43009 | 18.54996 | 40199 ft | 399 kts | 278° |
| 2026-05-04 08:33 | 37.44783 | 18.27180 | 40192 ft | 402 kts | 278° |
| 2026-05-04 08:35 | 37.46517 | 17.98923 | 40199 ft | 405 kts | 278° |
| 2026-05-04 08:35 | 37.46940 | 17.91866 | 40200 ft | 403 kts | 278° |
| 2026-05-04 08:37 | 37.48371 | 17.67420 | 40201 ft | 399 kts | 278° |
| 2026-05-04 08:38 | 37.48770 | 17.60442 | 40204 ft | 399 kts | 277° |
| 2026-05-04 08:38 | 37.48967 | 17.56971 | 39964 ft | 397 kts | 278° |
| 2026-05-04 08:38 | 37.49161 | 17.53511 | 39486 ft | 394 kts | 278° |
| 2026-05-04 08:40 | 37.50463 | 17.29958 | 35820 ft | 378 kts | 277° |
| 2026-05-04 08:40 | 37.50642 | 17.26664 | 35375 ft | 375 kts | 277° |
| 2026-05-04 08:40 | 37.50818 | 17.23399 | 34946 ft | 372 kts | 277° |
| 2026-05-04 08:41 | 37.50991 | 17.20158 | 34526 ft | 369 kts | 277° |
| 2026-05-04 08:41 | 37.51161 | 17.16970 | 34102 ft | 367 kts | 276° |
| 2026-05-04 08:41 | 37.51331 | 17.13768 | 33635 ft | 364 kts | 277° |
| 2026-05-04 08:41 | 37.51499 | 17.10596 | 33200 ft | 361 kts | 277° |
| 2026-05-04 08:42 | 37.51664 | 17.07450 | 32786 ft | 358 kts | 277° |
| 2026-05-04 08:42 | 37.51827 | 17.04330 | 32362 ft | 355 kts | 277° |
| 2026-05-04 08:42 | 37.51988 | 17.01233 | 31969 ft | 352 kts | 277° |
| 2026-05-04 08:42 | 37.52145 | 16.98194 | 31588 ft | 350 kts | 277° |
| 2026-05-04 08:43 | 37.52302 | 16.95138 | 31211 ft | 348 kts | 277° |
| 2026-05-04 08:43 | 37.52458 | 16.92097 | 30827 ft | 345 kts | 277° |
| 2026-05-04 08:43 | 37.52610 | 16.89113 | 30454 ft | 344 kts | 277° |
| 2026-05-04 08:43 | 37.52762 | 16.86114 | 30042 ft | 342 kts | 277° |
| 2026-05-04 08:44 | 37.52913 | 16.83129 | 29604 ft | 339 kts | 277° |
| 2026-05-04 08:44 | 37.53061 | 16.80176 | 29170 ft | 336 kts | 277° |
| 2026-05-04 08:46 | 37.54042 | 16.60252 | 26363 ft | 316 kts | 277° |
| 2026-05-04 08:46 | 37.54175 | 16.57488 | 25972 ft | 314 kts | 277° |
| 2026-05-04 08:46 | 37.54305 | 16.54782 | 25587 ft | 312 kts | 277° |
| 2026-05-04 08:46 | 37.54436 | 16.52055 | 25197 ft | 310 kts | 277° |
| 2026-05-04 08:47 | 37.54565 | 16.49350 | 24807 ft | 309 kts | 277° |
| 2026-05-04 08:47 | 37.54693 | 16.46653 | 24415 ft | 307 kts | 278° |
| 2026-05-04 08:47 | 37.54820 | 16.43960 | 23998 ft | 307 kts | 278° |
| 2026-05-04 08:47 | 37.54946 | 16.41280 | 23568 ft | 306 kts | 278° |
| 2026-05-04 08:48 | 37.55071 | 16.38605 | 23130 ft | 304 kts | 277° |
| 2026-05-04 08:48 | 37.55193 | 16.35974 | 22714 ft | 302 kts | 277° |
| 2026-05-04 08:48 | 37.55315 | 16.33338 | 22301 ft | 300 kts | 277° |
| 2026-05-04 08:48 | 37.55435 | 16.30717 | 21907 ft | 298 kts | 277° |
| 2026-05-04 08:49 | 37.55554 | 16.28118 | 21519 ft | 296 kts | 277° |
| 2026-05-04 08:50 | 37.56247 | 16.12761 | 19235 ft | 291 kts | 276° |
| 2026-05-04 08:50 | 37.56360 | 16.10210 | 18841 ft | 291 kts | 276° |
| 2026-05-04 08:51 | 37.56471 | 16.07693 | 18439 ft | 292 kts | 275° |
| 2026-05-04 08:51 | 37.56583 | 16.05131 | 18007 ft | 291 kts | 275° |
| 2026-05-04 08:51 | 37.56694 | 16.02585 | 17609 ft | 290 kts | 275° |
| 2026-05-04 08:51 | 37.56804 | 16.00051 | 17210 ft | 288 kts | 275° |
| 2026-05-04 08:52 | 37.56911 | 15.97563 | 16825 ft | 287 kts | 275° |
| 2026-05-04 08:52 | 37.57019 | 15.95059 | 16458 ft | 285 kts | 275° |
| 2026-05-04 08:52 | 37.57125 | 15.92570 | 16090 ft | 283 kts | 275° |
| 2026-05-04 08:52 | 37.57231 | 15.90090 | 15723 ft | 282 kts | 275° |
| 2026-05-04 08:53 | 37.57051 | 15.87640 | 15331 ft | 285 kts | 252° |
| 2026-05-04 08:54 | 37.45035 | 15.77776 | 12891 ft | 300 kts | 210° |
| 2026-05-04 08:55 | 37.43197 | 15.76547 | 12549 ft | 297 kts | 210° |
| 2026-05-04 08:55 | 37.41400 | 15.75343 | 12217 ft | 294 kts | 210° |
| 2026-05-04 08:55 | 37.39600 | 15.74136 | 11889 ft | 292 kts | 210° |
| 2026-05-04 08:55 | 37.37814 | 15.72937 | 11561 ft | 290 kts | 211° |
| 2026-05-04 08:57 | 37.33636 | 15.57189 | 9301 ft | 275 kts | 261° |
| 2026-05-04 09:01 | 37.32182 | 15.29188 | 5296 ft | 246 kts | 306° |
| 2026-05-04 09:01 | 37.33210 | 15.27484 | 5010 ft | 243 kts | 305° |
| 2026-05-04 09:01 | 37.34217 | 15.25793 | 4728 ft | 240 kts | 305° |
| 2026-05-04 09:01 | 37.35202 | 15.24114 | 4451 ft | 236 kts | 302° |
| 2026-05-04 09:02 | 37.35825 | 15.22247 | 4185 ft | 230 kts | 283° |
| 2026-05-04 09:02 | 37.36220 | 15.20314 | 3929 ft | 227 kts | 283° |
| 2026-05-04 09:02 | 37.36624 | 15.18428 | 3676 ft | 224 kts | 284° |
| 2026-05-04 09:02 | 37.37034 | 15.16547 | 3423 ft | 222 kts | 284° |
| 2026-05-04 09:03 | 37.37443 | 15.14691 | 3181 ft | 219 kts | 284° |
| 2026-05-04 09:03 | 37.37850 | 15.12850 | 2917 ft | 216 kts | 284° |
| 2026-05-04 09:03 | 37.38179 | 15.11015 | 2676 ft | 213 kts | 278° |
| 2026-05-04 09:03 | 37.38392 | 15.09197 | 2454 ft | 206 kts | 277° |
| 2026-05-04 09:04 | 37.38612 | 15.07467 | 2228 ft | 198 kts | 279° |
| 2026-05-04 09:04 | 37.38815 | 15.05802 | 1977 ft | 186 kts | 277° |
| 2026-05-04 09:04 | 37.38972 | 15.04258 | 1810 ft | 168 kts | 277° |
| 2026-05-04 09:04 | 37.39132 | 15.02834 | 1554 ft | 159 kts | 277° |
| 2026-05-04 09:05 | 37.39276 | 15.01515 | 1355 ft | 141 kts | 277° |
| 2026-05-04 09:05 | 37.39410 | 15.00363 | 1143 ft | 127 kts | 277° |
| 2026-05-04 09:05 | 37.39536 | 14.99271 | 1003 ft | 129 kts | 277° |
| 2026-05-04 09:05 | 37.39668 | 14.98153 | 800 ft | 131 kts | 277° |
| 2026-05-04 09:06 | 37.39805 | 14.97033 | 672 ft | 128 kts | 277° |
| 2026-05-04 09:07 | 37.40505 | 14.90992 | 92 ft | 18 kts | 281° |
| 2026-05-04 09:08 | 37.40595 | 14.90930 | 92 ft | 17 kts | 10° |
| 2026-05-04 09:08 | 37.40683 | 14.90992 | 93 ft | 16 kts | 95° |
| 2026-05-04 09:08 | 37.40668 | 14.91132 | 93 ft | 16 kts | 98° |
| 2026-05-04 09:08 | 37.40652 | 14.91265 | 93 ft | 15 kts | 98° |
| 2026-05-04 09:09 | 37.40637 | 14.91392 | 94 ft | 14 kts | 98° |
| 2026-05-04 09:09 | 37.40576 | 14.91468 | 93 ft | 14 kts | 153° |
| 2026-05-04 09:09 | 37.40597 | 14.91550 | 93 ft | 13 kts | 360° |
| 2026-05-04 09:09 | 37.40624 | 14.91501 | 94 ft | 0 kts | 279° |